HARTSFIELD - JACKSON ATLANTA INTL

KATL (ATL)
Atlanta, Georgia
Towered

Vatsim Metar:
KATL 270252Z 21003KT 10SM CLR 18/14 A3013 RMK AO2 SLP197 T01830139 51008